createdAt,value
2022-11-21T00:00:17.357Z,-0.92
2022-11-21T00:02:43.810Z,-1.00
2022-11-21T00:05:10.458Z,-1.00
2022-11-21T00:07:37.294Z,-0.94
2022-11-21T00:10:03.978Z,-0.88
2022-11-21T00:12:30.370Z,-0.95
2022-11-21T00:14:56.831Z,-1.00
2022-11-21T00:17:23.248Z,-0.94
2022-11-21T00:19:49.652Z,-0.83
2022-11-21T00:22:17.991Z,-0.90
2022-11-21T00:24:44.715Z,-0.96
2022-11-21T00:27:11.175Z,-0.94
2022-11-21T00:29:38.986Z,-0.84
2022-11-21T00:32:05.498Z,-0.92
2022-11-21T00:34:31.942Z,-1.00
2022-11-21T00:37:00.209Z,-1.02
2022-11-21T00:39:26.651Z,-0.95
2022-11-21T00:41:53.039Z,-0.89
2022-11-21T00:44:19.531Z,-0.93
2022-11-21T00:46:45.996Z,-0.93
2022-11-21T00:49:12.643Z,-0.92
2022-11-21T00:51:39.139Z,-0.82
2022-11-21T00:54:05.651Z,-0.81
2022-11-21T00:56:32.101Z,-0.86
2022-11-21T00:58:58.639Z,-0.87
2022-11-21T01:01:25.140Z,-0.79
2022-11-21T01:03:51.613Z,-0.79
2022-11-21T01:06:18.310Z,-0.83
2022-11-21T01:08:45.176Z,-0.89
2022-11-21T01:11:13.285Z,-0.85
2022-11-21T01:13:39.794Z,-0.74
2022-11-21T01:16:08.180Z,-0.73
2022-11-21T01:18:35.452Z,-0.82
2022-11-21T01:21:02.417Z,-0.85
2022-11-21T01:23:29.727Z,-0.80
2022-11-21T01:26:00.714Z,-0.67
2022-11-21T01:28:27.204Z,-0.70
2022-11-21T01:30:54.433Z,-0.69
2022-11-21T01:33:20.819Z,-0.69
2022-11-21T01:35:47.243Z,-0.70
2022-11-21T01:38:13.638Z,-0.61
2022-11-21T01:40:40.467Z,-0.62
2022-11-21T01:43:16.126Z,-0.66
2022-11-21T01:45:56.897Z,-0.68
2022-11-21T01:48:29.925Z,-0.64
2022-11-21T01:50:57.582Z,-0.63
2022-11-21T01:53:24.670Z,-0.76
2022-11-21T01:55:51.657Z,-0.86
2022-11-21T01:58:18.187Z,-0.91
2022-11-21T02:00:47.037Z,-0.82
2022-11-21T02:03:15.578Z,-0.81
2022-11-21T02:05:42.164Z,-0.73
2022-11-21T02:08:11.211Z,-1.00
2022-11-21T02:10:39.802Z,-1.28
2022-11-21T02:13:06.236Z,-1.33
2022-11-21T02:15:32.744Z,-1.18
2022-11-21T02:17:59.221Z,-1.28
2022-11-21T02:20:26.926Z,-1.50
2022-11-21T02:23:05.538Z,-1.58
2022-11-21T02:25:34.238Z,-1.65
2022-11-21T02:28:10.299Z,-1.48
2022-11-21T02:30:38.627Z,-1.58
2022-11-21T02:33:08.097Z,-1.79
2022-11-21T02:35:36.836Z,-1.80
2022-11-21T02:38:29.465Z,-1.80
2022-11-21T02:41:01.994Z,-1.63
2022-11-21T02:43:50.503Z,-1.73
2022-11-21T02:46:16.966Z,-1.77
2022-11-21T02:48:43.621Z,-1.79
2022-11-21T02:51:10.117Z,-1.70
2022-11-21T02:53:36.562Z,-1.54
2022-11-21T02:56:03.032Z,-1.65
2022-11-21T02:58:29.984Z,-1.71
2022-11-21T03:00:56.552Z,-1.78
2022-11-21T03:03:25.418Z,-1.80
2022-11-21T03:05:52.007Z,-1.64
2022-11-21T03:08:18.574Z,-1.85
2022-11-21T03:10:45.067Z,-1.94
2022-11-21T03:13:11.829Z,-1.93
2022-11-21T03:15:38.325Z,-1.87
2022-11-21T03:18:04.915Z,-1.70
2022-11-21T03:20:32.091Z,-1.78
2022-11-21T03:22:58.662Z,-1.78
2022-11-21T03:25:25.306Z,-1.74
2022-11-21T03:27:53.249Z,-1.64
2022-11-21T03:30:21.510Z,-1.53
2022-11-21T03:32:49.324Z,-1.60
2022-11-21T03:35:16.087Z,-1.70
2022-11-21T03:37:42.854Z,-1.74
2022-11-21T03:40:09.573Z,-1.57
2022-11-21T03:42:36.054Z,-1.64
2022-11-21T03:45:02.477Z,-1.75
2022-11-21T03:47:29.024Z,-1.77
2022-11-21T03:49:55.435Z,-1.71
2022-11-21T03:52:21.905Z,-1.54
2022-11-21T03:54:48.362Z,-1.56
2022-11-21T03:57:14.751Z,-1.61
2022-11-21T03:59:41.190Z,-1.61
2022-11-21T04:02:07.790Z,-1.51
2022-11-21T04:04:34.305Z,-1.48
2022-11-21T04:07:00.821Z,-1.60
2022-11-21T04:09:27.278Z,-1.69
2022-11-21T04:11:53.720Z,-1.66
2022-11-21T04:14:20.151Z,-1.48
2022-11-21T04:16:46.803Z,-1.55
2022-11-21T04:19:15.478Z,-1.61
2022-11-21T04:21:41.870Z,-1.65
2022-11-21T04:24:08.466Z,-1.51
2022-11-21T04:26:34.966Z,-1.51
2022-11-21T04:29:02.257Z,-1.65
2022-11-21T04:31:31.253Z,-1.69
2022-11-21T04:33:57.657Z,-1.64
2022-11-21T04:36:24.118Z,-1.46
2022-11-21T04:38:52.390Z,-1.53
2022-11-21T04:41:20.886Z,-1.56
2022-11-21T04:43:47.427Z,-1.59
2022-11-21T04:46:13.822Z,-1.46
2022-11-21T04:48:40.283Z,-1.52
2022-11-21T04:51:06.810Z,-1.55
2022-11-21T04:53:34.622Z,-1.55
2022-11-21T04:56:07.544Z,-1.41
2022-11-21T04:58:35.710Z,-1.44
2022-11-21T05:01:05.779Z,-1.51
2022-11-21T05:03:32.314Z,-1.51
2022-11-21T05:05:58.712Z,-1.46
2022-11-21T05:08:25.148Z,-1.29
2022-11-21T05:11:10.361Z,-1.34
2022-11-21T05:13:36.869Z,-1.37
2022-11-21T05:16:03.336Z,-1.40
2022-11-21T05:18:29.782Z,-1.24
2022-11-21T05:20:56.301Z,-1.28
2022-11-21T05:23:23.003Z,-1.41
2022-11-21T05:25:49.458Z,-1.40
2022-11-21T05:28:15.981Z,-1.35
2022-11-21T05:30:43.205Z,-1.26
2022-11-21T05:33:09.629Z,-1.37
2022-11-21T05:35:42.866Z,-1.43
2022-11-21T05:38:12.292Z,-1.50
2022-11-21T05:40:39.417Z,-1.36
2022-11-21T05:43:24.375Z,-1.35
2022-11-21T05:45:50.974Z,-1.44
2022-11-21T05:48:17.680Z,-1.46
2022-11-21T05:50:46.885Z,-1.37
2022-11-21T05:53:13.494Z,-1.32
2022-11-21T05:55:39.914Z,-1.50
2022-11-21T05:58:06.347Z,-1.60
2022-11-21T06:00:33.279Z,-1.60
2022-11-21T06:03:18.557Z,-1.46
2022-11-21T06:05:45.027Z,-1.56
2022-11-21T06:08:11.473Z,-1.66
2022-11-21T06:10:37.877Z,-1.65
2022-11-21T06:13:04.342Z,-1.58
2022-11-21T06:15:30.829Z,-1.47
2022-11-21T06:17:59.863Z,-1.56
2022-11-21T06:20:26.256Z,-1.65
2022-11-21T06:22:53.497Z,-1.66
2022-11-21T06:25:19.993Z,-1.48
2022-11-21T06:27:46.811Z,-1.49
2022-11-21T06:30:20.689Z,-1.59
2022-11-21T06:32:48.553Z,-1.65
2022-11-21T06:35:14.962Z,-1.62
2022-11-21T06:37:41.350Z,-1.49
2022-11-21T06:40:10.471Z,-1.57
2022-11-21T06:42:36.919Z,-1.57
2022-11-21T06:45:04.254Z,-1.68
2022-11-21T06:47:34.351Z,-1.55
2022-11-21T06:50:01.102Z,-1.65
2022-11-21T06:52:27.536Z,-1.73
2022-11-21T06:54:53.947Z,-1.75
2022-11-21T06:57:20.338Z,-1.65
2022-11-21T06:59:46.922Z,-1.46
2022-11-21T07:02:13.570Z,-1.57
2022-11-21T07:04:40.470Z,-1.45
2022-11-21T07:07:07.240Z,-1.44
2022-11-21T07:09:35.731Z,-1.55
2022-11-21T07:12:20.887Z,-1.47
2022-11-21T07:14:47.638Z,-1.41
2022-11-21T07:17:14.375Z,-1.50
2022-11-21T07:19:41.204Z,-1.50
2022-11-21T07:22:08.631Z,-1.33
2022-11-21T07:24:35.102Z,-1.46
2022-11-21T07:27:01.742Z,-1.52
2022-11-21T07:29:29.747Z,-1.42
2022-11-21T07:31:56.533Z,-1.35
2022-11-21T07:34:22.953Z,-1.43
2022-11-21T07:36:51.530Z,-1.48
2022-11-21T07:39:17.951Z,-1.29
2022-11-21T07:41:44.366Z,-1.36
2022-11-21T07:44:10.774Z,-1.39
2022-11-21T07:46:37.267Z,-1.30
2022-11-21T07:49:03.997Z,-1.23
2022-11-21T07:51:30.713Z,-1.37
2022-11-21T07:53:57.112Z,-1.42
2022-11-21T07:56:26.624Z,-1.30
2022-11-21T07:58:53.346Z,-1.34
2022-11-21T08:01:19.988Z,-1.42
2022-11-21T08:03:46.914Z,-1.40
2022-11-21T08:06:13.530Z,-1.25
2022-11-21T08:08:39.982Z,-1.31
2022-11-21T08:11:07.561Z,-1.28
2022-11-21T08:13:34.802Z,-1.23
2022-11-21T08:16:04.342Z,-1.23
2022-11-21T08:18:30.766Z,-1.26
2022-11-21T08:20:57.235Z,-1.25
2022-11-21T08:23:23.631Z,-1.07
2022-11-21T08:25:51.945Z,-1.12
2022-11-21T08:28:18.371Z,-1.17
2022-11-21T08:30:45.779Z,-1.14
2022-11-21T08:33:12.203Z,-1.03
2022-11-21T08:35:39.070Z,-1.11
2022-11-21T08:38:05.771Z,-1.12
2022-11-21T08:40:32.554Z,-1.02
2022-11-21T08:43:03.465Z,-1.01
2022-11-21T08:45:29.983Z,-1.05
2022-11-21T08:47:56.385Z,-1.05
2022-11-21T08:50:23.447Z,-0.91
2022-11-21T08:52:49.870Z,-0.93
2022-11-21T08:55:16.429Z,-0.96
2022-11-21T08:57:43.171Z,-0.89
2022-11-21T09:00:12.595Z,-0.74
2022-11-21T09:02:39.082Z,-0.83
2022-11-21T09:05:05.887Z,-0.86
2022-11-21T09:07:32.483Z,-0.76
2022-11-21T09:09:59.076Z,-0.77
2022-11-21T09:12:25.479Z,-0.83
2022-11-21T09:15:10.784Z,-0.84
2022-11-21T09:17:56.061Z,-0.71
2022-11-21T09:20:22.771Z,-0.71
2022-11-21T09:22:49.261Z,-0.75
2022-11-21T09:25:15.684Z,-0.71
2022-11-21T09:27:42.110Z,-0.72
2022-11-21T09:30:08.739Z,-0.75
2022-11-21T09:32:37.018Z,-0.79
2022-11-21T09:35:03.790Z,-0.64
2022-11-21T09:37:30.224Z,-0.65
2022-11-21T09:39:56.645Z,-0.70
2022-11-21T09:42:25.876Z,-0.68
2022-11-21T09:44:58.595Z,-0.57
2022-11-21T09:47:29.802Z,-0.67
2022-11-21T09:50:05.257Z,-0.70
2022-11-21T09:52:37.623Z,-0.60
2022-11-21T09:55:06.399Z,-0.54
2022-11-21T09:57:35.008Z,-0.60
2022-11-21T10:00:04.274Z,-0.61
2022-11-21T10:02:30.701Z,-0.47
2022-11-21T10:05:00.858Z,-0.51
2022-11-21T10:07:32.051Z,-0.57
2022-11-21T10:10:17.428Z,-0.54
2022-11-21T10:12:43.837Z,-0.40
2022-11-21T10:15:28.331Z,-0.43
2022-11-21T10:18:03.954Z,-0.49
2022-11-21T10:20:53.686Z,-0.39
2022-11-21T10:23:22.911Z,-0.38
2022-11-21T10:26:09.251Z,-0.47
2022-11-21T10:28:41.269Z,-0.42
2022-11-21T10:31:15.034Z,-0.33
2022-11-21T10:33:41.536Z,-0.39
2022-11-21T10:36:21.290Z,-0.41
2022-11-21T10:38:50.329Z,-0.32
2022-11-21T10:41:31.919Z,-0.26
2022-11-21T10:44:28.366Z,-0.35
2022-11-21T10:46:58.961Z,-0.36
2022-11-21T10:49:30.206Z,-0.22
2022-11-21T10:51:59.786Z,-0.30
2022-11-21T10:54:35.311Z,-0.42
2022-11-21T10:57:13.437Z,-0.41
2022-11-21T10:59:40.106Z,-0.29
2022-11-21T11:02:12.488Z,-0.34
2022-11-21T11:04:47.398Z,-0.35
2022-11-21T11:07:27.635Z,-0.29
2022-11-21T11:10:14.108Z,-0.20
2022-11-21T11:13:01.700Z,-0.24
2022-11-21T11:15:28.685Z,-0.29
2022-11-21T11:18:03.968Z,-0.14
2022-11-21T11:20:38.411Z,-0.13
2022-11-21T11:23:20.136Z,-0.15
2022-11-21T11:25:52.840Z,-0.23
2022-11-21T11:28:20.049Z,-0.15
2022-11-21T11:30:51.439Z,-0.13
2022-11-21T11:33:30.691Z,-0.20
2022-11-21T11:36:01.646Z,-0.22
2022-11-21T11:38:30.587Z,-0.11
2022-11-21T11:41:01.116Z,-0.12
2022-11-21T11:43:54.377Z,-0.12
2022-11-21T11:46:49.347Z,-0.15
2022-11-21T11:49:26.306Z,-0.12
2022-11-21T11:51:57.173Z,0.04
2022-11-21T11:54:29.648Z,0.07
2022-11-21T11:56:57.460Z,0.11
2022-11-21T11:59:27.159Z,-0.17
2022-11-21T12:02:05.297Z,-0.49
2022-11-21T12:04:37.814Z,-0.46
2022-11-21T12:10:05.407Z,-0.41
2022-11-21T12:12:52.061Z,-0.51
2022-11-21T12:15:52.495Z,-0.47
2022-11-21T12:18:19.387Z,-0.49
2022-11-21T12:20:51.996Z,-0.63
2022-11-21T12:23:19.466Z,-0.68
2022-11-21T12:26:06.278Z,-0.65
2022-11-21T12:28:52.233Z,-0.71
2022-11-21T12:31:27.552Z,-0.83
2022-11-21T12:34:09.889Z,-0.90
2022-11-21T12:36:59.451Z,-0.74
2022-11-21T12:39:34.842Z,-0.90
2022-11-21T12:42:39.041Z,-0.97
2022-11-21T12:45:18.258Z,-0.98
2022-11-21T12:48:24.465Z,-0.84
2022-11-21T12:51:09.260Z,-1.00
2022-11-21T12:54:09.389Z,-1.05
2022-11-21T12:56:44.910Z,-0.86
2022-11-21T12:59:14.210Z,-0.95
2022-11-21T13:01:43.531Z,-1.02
2022-11-21T13:04:15.354Z,-1.02
2022-11-21T13:06:43.324Z,-0.86
2022-11-21T13:09:13.544Z,-0.94
2022-11-21T13:12:01.433Z,-1.00
2022-11-21T13:14:40.243Z,-1.03
2022-11-21T13:17:14.389Z,-0.86
2022-11-21T13:19:47.194Z,-1.01
2022-11-21T13:22:32.791Z,-1.03
2022-11-21T13:25:01.127Z,-0.94
2022-11-21T13:27:42.855Z,-0.88
2022-11-21T13:30:15.070Z,-0.99
2022-11-21T13:32:43.800Z,-1.09
2022-11-21T13:35:16.531Z,-0.99
2022-11-21T13:37:52.595Z,-0.96
2022-11-21T13:40:27.971Z,-1.02
2022-11-21T13:43:35.364Z,-1.04
2022-11-21T13:46:02.319Z,-0.87
2022-11-21T13:48:28.724Z,-0.97
2022-11-21T13:51:07.382Z,-1.06
2022-11-21T13:53:33.918Z,-0.98
2022-11-21T13:56:00.353Z,-0.90
2022-11-21T13:58:26.724Z,-1.06
2022-11-21T14:00:59.028Z,-1.12
2022-11-21T14:03:31.275Z,-1.10
2022-11-21T14:05:57.643Z,-1.03
2022-11-21T14:08:28.301Z,-1.10
2022-11-21T14:10:55.585Z,-1.16
2022-11-21T14:13:28.143Z,-1.08
2022-11-21T14:16:00.667Z,-1.02
2022-11-21T14:18:29.869Z,-1.15
2022-11-21T14:21:00.764Z,-1.25
2022-11-21T14:23:29.567Z,-1.17
2022-11-21T14:26:03.577Z,-1.10
2022-11-21T14:28:31.370Z,-1.21
2022-11-21T14:31:02.112Z,-1.26
2022-11-21T14:33:32.578Z,-1.17
2022-11-21T14:36:01.168Z,-1.15
2022-11-21T14:38:28.182Z,-1.18
2022-11-21T14:41:13.209Z,-1.21
2022-11-21T14:43:39.607Z,-1.12
2022-11-21T14:46:12.898Z,-1.16
2022-11-21T14:48:39.302Z,-1.26
2022-11-21T14:51:05.726Z,-1.28
2022-11-21T14:53:32.222Z,-1.16
2022-11-21T14:56:01.707Z,-1.24
2022-11-21T14:58:28.408Z,-1.29
2022-11-21T15:01:04.915Z,-1.24
2022-11-21T15:03:31.418Z,-1.07
2022-11-21T15:06:05.780Z,-1.12
2022-11-21T15:11:21.687Z,-1.18
2022-11-21T15:16:36.828Z,-1.25
2022-11-21T15:19:08.661Z,-1.29
2022-11-21T15:21:35.243Z,-1.19
2022-11-21T15:24:15.866Z,-1.16
2022-11-21T15:26:42.803Z,-1.26
2022-11-21T15:29:17.598Z,-1.28
2022-11-21T15:31:46.075Z,-1.14
2022-11-21T15:34:34.216Z,-1.24
2022-11-21T15:37:26.718Z,-1.33
2022-11-21T15:39:53.788Z,-1.31
2022-11-21T15:42:32.184Z,-1.17
2022-11-21T15:45:00.172Z,-1.35
2022-11-21T15:47:26.681Z,-1.35
2022-11-21T15:49:53.105Z,-1.35
2022-11-21T15:52:19.615Z,-1.21
2022-11-21T15:54:47.304Z,-1.31
2022-11-21T15:57:16.795Z,-1.34
2022-11-21T15:59:43.913Z,-1.37
2022-11-21T16:02:12.450Z,-1.28
2022-11-21T16:04:39.499Z,-1.37
2022-11-21T16:07:06.062Z,-1.43
2022-11-21T16:09:33.069Z,-1.47
2022-11-21T16:11:59.611Z,-1.31
2022-11-21T16:14:26.058Z,-1.37
2022-11-21T16:16:52.574Z,-1.46
2022-11-21T16:19:18.961Z,-1.53
2022-11-21T16:21:45.490Z,-1.40
2022-11-21T16:24:12.085Z,-1.37
2022-11-21T16:26:38.577Z,-1.48
2022-11-21T16:29:05.845Z,-1.56
2022-11-21T16:31:35.958Z,-1.50
2022-11-21T16:34:02.781Z,-1.48
2022-11-21T16:36:30.269Z,-1.54
2022-11-21T16:39:01.859Z,-1.60
2022-11-21T16:41:30.027Z,-1.54
2022-11-21T16:43:56.469Z,-1.51
2022-11-21T16:46:23.905Z,-1.63
2022-11-21T16:48:59.903Z,-1.71
2022-11-21T16:51:26.406Z,-1.66
2022-11-21T16:53:52.828Z,-1.56
2022-11-21T16:56:19.434Z,-1.67
2022-11-21T16:58:47.248Z,-1.73
2022-11-21T17:01:15.247Z,-1.75
2022-11-21T17:03:42.934Z,-1.62
2022-11-21T17:06:10.253Z,-1.67
2022-11-21T17:08:37.074Z,-1.76
2022-11-21T17:11:17.651Z,-1.74
2022-11-21T17:13:45.456Z,-1.64
2022-11-21T17:16:12.781Z,-1.72
2022-11-21T17:18:39.306Z,-1.82
2022-11-21T17:21:07.275Z,-1.82
2022-11-21T17:23:36.161Z,-1.65
2022-11-21T17:26:04.165Z,-1.69
2022-11-21T17:28:30.635Z,-1.77
2022-11-21T17:30:57.528Z,-1.80
2022-11-21T17:33:25.354Z,-1.64
2022-11-21T17:35:51.917Z,-1.70
2022-11-21T17:38:18.686Z,-1.74
2022-11-21T17:40:45.103Z,-1.75
2022-11-21T17:43:11.498Z,-1.59
2022-11-21T17:45:37.913Z,-1.61
2022-11-21T17:48:04.413Z,-1.65
2022-11-21T17:50:30.927Z,-1.68
2022-11-21T17:52:57.350Z,-1.62
2022-11-21T17:55:23.810Z,-1.59
2022-11-21T17:57:50.567Z,-1.60
2022-11-21T18:00:17.060Z,-1.65
2022-11-21T18:02:43.656Z,-1.59
2022-11-21T18:05:10.182Z,-1.54
2022-11-21T18:07:39.923Z,-1.60
2022-11-21T18:10:40.754Z,-1.60
2022-11-21T18:12:57.187Z,-1.54
2022-11-21T18:15:23.649Z,-1.47
2022-11-21T18:17:52.186Z,-1.56
2022-11-21T18:20:18.767Z,-1.68
2022-11-21T18:22:47.800Z,-1.64
2022-11-21T18:25:16.242Z,-1.57
2022-11-21T18:27:42.760Z,-1.69
2022-11-21T18:30:09.441Z,-1.71
2022-11-21T18:32:36.640Z,-1.78
2022-11-21T18:35:03.197Z,-1.63
2022-11-21T18:37:29.602Z,-1.62
2022-11-21T18:39:56.053Z,-1.65
2022-11-21T18:42:22.495Z,-1.70
2022-11-21T18:44:48.995Z,-1.60
2022-11-21T18:47:20.366Z,-1.55
2022-11-21T18:49:48.019Z,-1.65
2022-11-21T18:52:14.586Z,-1.77
2022-11-21T18:54:41.054Z,-1.71
2022-11-21T18:57:07.524Z,-1.61
2022-11-21T18:59:34.030Z,-1.63
2022-11-21T19:02:00.614Z,-1.71
2022-11-21T19:04:28.579Z,-1.73
2022-11-21T19:06:55.318Z,-1.63
2022-11-21T19:09:21.970Z,-1.66
2022-11-21T19:11:48.386Z,-1.69
2022-11-21T19:14:14.803Z,-1.72
2022-11-21T19:16:41.360Z,-1.67
2022-11-21T19:21:55.611Z,-1.65
2022-11-21T19:24:22.058Z,-1.66
2022-11-21T19:26:50.425Z,-1.71
2022-11-21T19:29:17.656Z,-1.57
2022-11-21T19:31:46.209Z,-1.59
2022-11-21T19:34:13.410Z,-1.61
2022-11-21T19:36:39.898Z,-1.57
2022-11-21T19:39:06.453Z,-1.55
2022-11-21T19:41:32.860Z,-1.42
2022-11-21T19:44:00.037Z,-1.47
2022-11-21T19:46:28.097Z,-1.50
2022-11-21T19:48:55.910Z,-1.52
2022-11-21T19:51:23.412Z,-1.41
2022-11-21T19:53:49.902Z,-1.41
2022-11-21T19:56:18.513Z,-1.47
2022-11-21T19:58:45.065Z,-1.46
2022-11-21T20:01:11.617Z,-1.44
2022-11-21T20:03:38.994Z,-1.32
2022-11-21T20:06:06.971Z,-1.36
2022-11-21T20:08:34.044Z,-1.41
2022-11-21T20:11:11.473Z,-1.40
2022-11-21T20:13:41.703Z,-1.36
2022-11-21T20:16:15.323Z,-1.29
2022-11-21T20:18:41.722Z,-1.35
2022-11-21T20:21:09.447Z,-1.38
2022-11-21T20:23:36.182Z,-1.34
2022-11-21T20:26:02.717Z,-1.25
2022-11-21T20:28:29.259Z,-1.28
2022-11-21T20:31:02.541Z,-1.29
2022-11-21T20:33:29.281Z,-1.34
2022-11-21T20:36:01.911Z,-1.30
2022-11-21T20:38:28.441Z,-1.20
2022-11-21T20:40:54.985Z,-1.12
2022-11-21T20:43:21.489Z,-1.09
2022-11-21T20:46:08.310Z,-1.31
2022-11-21T20:48:36.962Z,-1.54
2022-11-21T20:52:25.600Z,-1.53
2022-11-21T20:53:52.516Z,-1.31
2022-11-21T20:56:20.870Z,-1.41
2022-11-21T20:58:47.738Z,-1.44
2022-11-21T21:01:15.543Z,-1.55
2022-11-21T21:03:42.466Z,-1.46
2022-11-21T21:06:11.154Z,-1.35
2022-11-21T21:08:37.794Z,-1.52
2022-11-21T21:11:30.573Z,-1.55
2022-11-21T21:13:57.933Z,-1.53
2022-11-21T21:16:25.714Z,-1.40
2022-11-21T21:18:53.671Z,-1.44
2022-11-21T21:21:21.532Z,-1.52
2022-11-21T21:23:54.160Z,-1.50
2022-11-21T21:26:22.241Z,-1.46
2022-11-21T21:28:49.003Z,-1.32
2022-11-21T21:31:17.596Z,-1.43
2022-11-21T21:33:44.498Z,-1.45
2022-11-21T21:36:12.134Z,-1.50
2022-11-21T21:38:39.031Z,-1.33
2022-11-21T21:41:06.278Z,-1.33
2022-11-21T21:43:33.120Z,-1.40
2022-11-21T21:46:06.535Z,-1.42
2022-11-21T21:48:33.385Z,-1.35
2022-11-21T21:51:05.378Z,-1.21
2022-11-21T21:53:32.525Z,-1.32
2022-11-21T21:56:00.038Z,-1.39
2022-11-21T21:58:28.010Z,-1.40
2022-11-21T22:00:54.951Z,-1.21
2022-11-21T22:03:21.406Z,-1.23
2022-11-21T22:05:47.833Z,-1.27
2022-11-21T22:08:14.234Z,-1.26
2022-11-21T22:10:40.663Z,-1.18
2022-11-21T22:13:07.311Z,-1.08
2022-11-21T22:15:33.735Z,-1.24
2022-11-21T22:18:00.211Z,-1.27
2022-11-21T22:20:26.736Z,-1.20
2022-11-21T22:22:59.019Z,-1.03
2022-11-21T22:25:27.055Z,-1.13
2022-11-21T22:27:54.096Z,-1.17
2022-11-21T22:30:20.530Z,-1.15
2022-11-21T22:32:47.683Z,-0.99
2022-11-21T22:35:14.227Z,-0.98
2022-11-21T22:37:40.759Z,-1.05
2022-11-21T22:40:07.469Z,-1.07
2022-11-21T22:42:33.936Z,-0.90
2022-11-21T22:45:00.366Z,-0.91
2022-11-21T22:47:26.768Z,-0.93
2022-11-21T22:49:53.189Z,-0.99
2022-11-21T22:52:19.820Z,-0.84
2022-11-21T22:54:47.682Z,-0.88
2022-11-21T22:57:14.135Z,-0.95
2022-11-21T22:59:40.591Z,-0.97
2022-11-21T23:02:07.085Z,-0.78
2022-11-21T23:04:33.674Z,-0.76
2022-11-21T23:07:00.320Z,-0.83
2022-11-21T23:09:27.044Z,-0.85
2022-11-21T23:11:53.871Z,-0.74
2022-11-21T23:14:20.337Z,-0.72
2022-11-21T23:16:46.746Z,-0.78
2022-11-21T23:19:13.135Z,-0.78
2022-11-21T23:21:39.543Z,-0.62
2022-11-21T23:24:08.086Z,-0.61
2022-11-21T23:26:34.821Z,-0.67
2022-11-21T23:29:08.030Z,-0.74
2022-11-21T23:31:35.919Z,-0.61
2022-11-21T23:34:02.430Z,-0.56
2022-11-21T23:36:28.969Z,-0.61
2022-11-21T23:38:55.386Z,-0.67
2022-11-21T23:41:21.823Z,-0.53
2022-11-21T23:43:48.218Z,-0.48
2022-11-21T23:46:14.639Z,-0.55
2022-11-21T23:48:41.089Z,-0.59
2022-11-21T23:51:09.500Z,-0.48
2022-11-21T23:53:35.965Z,-0.44
2022-11-21T23:56:02.392Z,-0.53
2022-11-21T23:58:28.908Z,-0.56
